createdAt,value
2022-11-16T00:02:29.323Z,106417.47
2022-11-16T00:04:55.900Z,106400.72
2022-11-16T00:07:22.300Z,106372.25
2022-11-16T00:09:48.767Z,106306.69
2022-11-16T00:12:15.144Z,106341.28
2022-11-16T00:14:41.511Z,106312.03
2022-11-16T00:17:07.915Z,106292.34
2022-11-16T00:19:34.344Z,106335.19
2022-11-16T00:22:00.809Z,106289.38
2022-11-16T00:24:27.269Z,106314.63
2022-11-16T00:26:55.026Z,106206.03
2022-11-16T00:29:24.331Z,106221.75
2022-11-16T00:31:51.197Z,106143.59
2022-11-16T00:34:18.419Z,106192.47
2022-11-16T00:36:45.682Z,106206.94
2022-11-16T00:39:16.639Z,106070.53
2022-11-16T00:41:43.782Z,106083.31
2022-11-16T00:44:10.812Z,106101.13
2022-11-16T00:46:37.249Z,106085.19
2022-11-16T00:49:04.938Z,106083.16
2022-11-16T00:51:31.898Z,106107.81
2022-11-16T00:53:58.279Z,106086.72
2022-11-16T00:56:24.671Z,106068.53
2022-11-16T00:58:51.078Z,106003.91
2022-11-16T01:01:18.150Z,106051.94
2022-11-16T01:03:44.975Z,106059.25
2022-11-16T01:06:13.367Z,106063.63
2022-11-16T01:08:40.892Z,105972.63
2022-11-16T01:11:08.148Z,106009.75
2022-11-16T01:13:34.560Z,106026.47
2022-11-16T01:16:00.974Z,105974.31
2022-11-16T01:18:27.379Z,105922.38
2022-11-16T01:20:53.779Z,106035.47
2022-11-16T01:23:20.193Z,106026.78
2022-11-16T01:25:46.619Z,106014.00
2022-11-16T01:28:13.039Z,106002.59
2022-11-16T01:30:39.488Z,105990.41
2022-11-16T01:33:05.897Z,105925.31
2022-11-16T01:35:32.292Z,105894.25
2022-11-16T01:37:58.680Z,105985.81
2022-11-16T01:40:27.408Z,105897.44
2022-11-16T01:42:53.834Z,105885.19
2022-11-16T01:45:28.477Z,105870.59
2022-11-16T01:47:55.158Z,105903.19
2022-11-16T01:50:22.718Z,105830.97
2022-11-16T01:52:54.433Z,105846.94
2022-11-16T01:55:23.164Z,105883.09
2022-11-16T01:57:50.355Z,105886.03
2022-11-16T02:00:17.685Z,105832.19
2022-11-16T02:02:44.338Z,105816.47
2022-11-16T02:05:14.011Z,105808.75
2022-11-16T02:07:57.586Z,105792.50
2022-11-16T02:10:34.346Z,105763.09
2022-11-16T02:13:16.099Z,105771.09
2022-11-16T02:16:04.320Z,105747.72
2022-11-16T02:18:42.532Z,105726.97
2022-11-16T02:21:30.605Z,105745.34
2022-11-16T02:24:18.863Z,105649.19
2022-11-16T02:27:16.436Z,105667.50
2022-11-16T02:29:47.488Z,105638.22
2022-11-16T02:32:31.460Z,105598.53
2022-11-16T02:35:15.635Z,105538.03
2022-11-16T02:37:57.812Z,105610.81
2022-11-16T02:40:27.473Z,105576.75
2022-11-16T02:43:17.735Z,105590.50
2022-11-16T02:45:48.647Z,105588.16
2022-11-16T02:48:22.465Z,105488.94
2022-11-16T02:50:51.783Z,105503.41
2022-11-16T02:53:20.460Z,105569.09
2022-11-16T02:55:46.916Z,105477.53
2022-11-16T02:58:16.960Z,105486.97
2022-11-16T03:00:46.391Z,105478.22
2022-11-16T03:03:35.281Z,105539.59
2022-11-16T03:06:24.645Z,105543.88
2022-11-16T03:09:14.392Z,105549.00
2022-11-16T03:11:47.463Z,105487.16
2022-11-16T03:14:18.617Z,105412.50
2022-11-16T03:16:50.957Z,105482.78
2022-11-16T03:19:25.229Z,105489.44
2022-11-16T03:22:02.817Z,105489.25
2022-11-16T03:24:29.500Z,105509.13
2022-11-16T03:27:08.838Z,105425.78
2022-11-16T03:30:07.555Z,105399.38
2022-11-16T03:32:43.095Z,105451.91
2022-11-16T03:35:14.660Z,105461.88
2022-11-16T03:37:43.003Z,105349.19
2022-11-16T03:40:11.535Z,105429.16
2022-11-16T03:42:39.489Z,105412.16
2022-11-16T03:45:07.232Z,105396.56
2022-11-16T03:47:33.846Z,105373.13
2022-11-16T03:50:00.297Z,105395.13
2022-11-16T03:52:26.874Z,105385.22
2022-11-16T03:54:53.376Z,105386.13
2022-11-16T03:57:19.790Z,105367.69
2022-11-16T03:59:46.204Z,105274.44
2022-11-16T04:02:12.704Z,105300.94
2022-11-16T04:04:39.072Z,105260.97
2022-11-16T04:07:05.515Z,105234.47
2022-11-16T04:09:31.917Z,105250.38
2022-11-16T04:11:58.292Z,105157.84
2022-11-16T04:14:27.065Z,105078.22
2022-11-16T04:16:54.529Z,105039.63
2022-11-16T04:19:21.123Z,105082.72
2022-11-16T04:21:53.421Z,105055.13
2022-11-16T04:24:23.530Z,105007.50
2022-11-16T04:26:54.624Z,104900.72
2022-11-16T04:29:21.081Z,104876.34
2022-11-16T04:31:47.484Z,104800.88
2022-11-16T04:34:13.856Z,104784.91
2022-11-16T04:36:40.262Z,104702.66
2022-11-16T04:39:06.663Z,104635.06
2022-11-16T04:41:34.074Z,104614.88
2022-11-16T04:44:00.549Z,104583.34
2022-11-16T04:46:27.016Z,104548.19
2022-11-16T04:48:53.405Z,104473.06
2022-11-16T04:51:19.803Z,104440.25
2022-11-16T04:53:46.188Z,104482.47
2022-11-16T04:56:12.583Z,104409.91
2022-11-16T04:58:38.962Z,104352.69
2022-11-16T05:01:05.486Z,104296.38
2022-11-16T05:03:32.059Z,104161.91
2022-11-16T05:05:58.556Z,104099.28
2022-11-16T05:08:24.932Z,104093.25
2022-11-16T05:10:51.772Z,104011.38
2022-11-16T05:13:18.240Z,103906.69
2022-11-16T05:15:47.718Z,103789.69
2022-11-16T05:18:14.178Z,103631.56
2022-11-16T05:20:40.629Z,103388.69
2022-11-16T05:23:07.015Z,103307.63
2022-11-16T05:25:36.683Z,103192.13
2022-11-16T05:28:03.641Z,103022.19
2022-11-16T05:30:30.024Z,103009.88
2022-11-16T05:32:56.403Z,102921.16
2022-11-16T05:35:22.869Z,102856.38
2022-11-16T05:37:49.229Z,102856.38
2022-11-16T05:40:15.883Z,102777.78
2022-11-16T05:42:42.320Z,102821.44
2022-11-16T05:45:09.104Z,102751.34
2022-11-16T05:47:35.602Z,102808.72
2022-11-16T05:50:02.046Z,102831.72
2022-11-16T05:52:28.456Z,102832.56
2022-11-16T05:54:54.943Z,102837.34
2022-11-16T05:57:21.358Z,102867.88
2022-11-16T05:59:47.768Z,102884.16
2022-11-16T06:02:14.275Z,102908.09
2022-11-16T06:04:40.674Z,102928.06
2022-11-16T06:07:07.143Z,102954.78
2022-11-16T06:09:33.620Z,102977.91
2022-11-16T06:12:00.038Z,102945.03
2022-11-16T06:14:26.451Z,102973.38
2022-11-16T06:16:52.888Z,103051.25
2022-11-16T06:19:19.319Z,103067.81
2022-11-16T06:21:45.737Z,103111.50
2022-11-16T06:24:12.169Z,103132.94
2022-11-16T06:26:38.661Z,103133.06
2022-11-16T06:29:05.152Z,103191.25
2022-11-16T06:31:31.577Z,103174.16
2022-11-16T06:33:58.049Z,103233.25
2022-11-16T06:36:24.667Z,103252.50
2022-11-16T06:38:51.142Z,103278.97
2022-11-16T06:41:17.665Z,103323.28
2022-11-16T06:43:44.401Z,103323.69
2022-11-16T06:46:10.817Z,103388.91
2022-11-16T06:48:37.498Z,103350.84
2022-11-16T06:51:04.325Z,103397.06
2022-11-16T06:53:30.718Z,103402.63
2022-11-16T06:56:01.951Z,103422.69
2022-11-16T06:58:30.184Z,103381.72
2022-11-16T07:00:56.846Z,103473.06
2022-11-16T07:03:23.464Z,103458.78
2022-11-16T07:05:49.907Z,103450.25
2022-11-16T07:08:16.283Z,103462.66
2022-11-16T07:10:42.729Z,103479.31
2022-11-16T07:13:09.166Z,103488.09
2022-11-16T07:15:35.564Z,103421.91
2022-11-16T07:18:06.460Z,103481.47
2022-11-16T07:20:33.815Z,103480.13
2022-11-16T07:23:01.830Z,103460.66
2022-11-16T07:25:28.864Z,103400.97
2022-11-16T07:27:55.338Z,103470.59
2022-11-16T07:30:22.402Z,103493.16
2022-11-16T07:32:48.776Z,103481.09
2022-11-16T07:35:15.231Z,103459.00
2022-11-16T07:37:41.619Z,103450.97
2022-11-16T07:40:08.757Z,103448.59
2022-11-16T07:42:35.298Z,103375.09
2022-11-16T07:45:01.727Z,103410.53
2022-11-16T07:47:28.128Z,103334.47
2022-11-16T07:49:54.547Z,103374.22
2022-11-16T07:52:20.991Z,103367.72
2022-11-16T07:54:47.385Z,103278.00
2022-11-16T07:57:13.778Z,103322.47
2022-11-16T07:59:40.158Z,103268.88
2022-11-16T08:02:06.590Z,103312.81
2022-11-16T08:04:33.042Z,103288.13
2022-11-16T08:06:59.477Z,103220.16
2022-11-16T08:09:25.929Z,103260.44
2022-11-16T08:11:52.341Z,103242.53
2022-11-16T08:14:18.773Z,103205.81
2022-11-16T08:16:45.183Z,103184.59
2022-11-16T08:19:11.565Z,103155.72
2022-11-16T08:21:37.981Z,103118.34
2022-11-16T08:24:04.799Z,103090.13
2022-11-16T08:26:31.292Z,103026.19
2022-11-16T08:28:57.765Z,102980.75
2022-11-16T08:31:27.281Z,102925.84
2022-11-16T08:33:54.183Z,102891.03
2022-11-16T08:36:21.146Z,102856.94
2022-11-16T08:38:49.700Z,102836.66
2022-11-16T08:41:17.316Z,102801.19
2022-11-16T08:43:44.135Z,102771.56
2022-11-16T08:46:11.446Z,102688.19
2022-11-16T08:48:38.253Z,102601.63
2022-11-16T08:51:18.613Z,102625.13
2022-11-16T08:53:45.977Z,102579.13
2022-11-16T08:56:12.584Z,102502.56
2022-11-16T08:58:40.394Z,102508.91
2022-11-16T09:01:15.074Z,102478.19
2022-11-16T09:03:42.366Z,102420.72
2022-11-16T09:06:10.528Z,102391.75
2022-11-16T09:08:40.087Z,102284.91
2022-11-16T09:11:12.995Z,102233.16
2022-11-16T09:13:39.890Z,102194.66
2022-11-16T09:16:06.481Z,102206.22
2022-11-16T09:18:34.167Z,102175.53
2022-11-16T09:21:00.932Z,102091.00
2022-11-16T09:23:28.148Z,102109.13
2022-11-16T09:25:55.122Z,102031.91
2022-11-16T09:28:22.325Z,101995.44
2022-11-16T09:30:50.896Z,102020.22
2022-11-16T09:33:17.418Z,101994.31
2022-11-16T09:35:44.030Z,101931.81
2022-11-16T09:38:12.653Z,101970.66
2022-11-16T09:40:45.988Z,101952.91
2022-11-16T09:43:18.251Z,101922.75
2022-11-16T09:46:06.169Z,101925.94
2022-11-16T09:48:37.337Z,101912.44
2022-11-16T09:51:07.531Z,101827.50
2022-11-16T09:53:52.934Z,101837.00
2022-11-16T09:56:28.204Z,101785.31
2022-11-16T09:58:59.240Z,101739.72
2022-11-16T10:01:51.494Z,101685.97
2022-11-16T10:04:47.615Z,101643.09
2022-11-16T10:07:23.126Z,101577.00
2022-11-16T10:09:49.795Z,101496.34
2022-11-16T10:12:28.240Z,101381.78
2022-11-16T10:15:16.444Z,101325.94
2022-11-16T10:17:48.270Z,101241.47
2022-11-16T10:20:45.091Z,101185.06
2022-11-16T10:23:26.607Z,101135.81
2022-11-16T10:25:57.666Z,101088.47
2022-11-16T10:28:45.865Z,101058.75
2022-11-16T10:31:26.195Z,101020.63
2022-11-16T10:33:57.033Z,100979.03
2022-11-16T10:36:25.824Z,100910.72
2022-11-16T10:38:53.824Z,100939.94
2022-11-16T10:41:30.339Z,100855.34
2022-11-16T10:43:59.050Z,100898.38
2022-11-16T10:46:40.311Z,100863.06
2022-11-16T10:49:16.496Z,100836.75
2022-11-16T10:51:43.159Z,100787.38
2022-11-16T10:54:17.730Z,100803.88
2022-11-16T10:56:49.355Z,100805.06
2022-11-16T10:59:19.023Z,100805.06
2022-11-16T11:01:50.218Z,100789.00
2022-11-16T11:04:27.581Z,100766.94
2022-11-16T11:07:02.415Z,100564.81
2022-11-16T11:09:34.593Z,100743.84
2022-11-16T11:12:02.557Z,100717.16
2022-11-16T11:14:29.064Z,100700.69
2022-11-16T11:16:55.589Z,100667.38
2022-11-16T11:19:29.409Z,100666.38
2022-11-16T11:22:00.657Z,100605.25
2022-11-16T11:24:44.760Z,100594.78
2022-11-16T11:27:12.255Z,100634.19
2022-11-16T11:29:42.278Z,100619.97
2022-11-16T11:32:20.759Z,100597.50
2022-11-16T11:34:53.595Z,100599.25
2022-11-16T11:37:25.336Z,100551.16
2022-11-16T11:40:07.908Z,100554.03
2022-11-16T11:42:34.396Z,100565.41
2022-11-16T11:45:07.622Z,100541.00
2022-11-16T11:47:58.956Z,100536.34
2022-11-16T11:50:43.929Z,100543.91
2022-11-16T11:53:10.282Z,100514.97
2022-11-16T11:55:39.972Z,100448.41
2022-11-16T11:58:13.743Z,100489.78
2022-11-16T12:01:23.750Z,100488.22
2022-11-16T12:04:16.437Z,100475.16
2022-11-16T12:06:55.041Z,100470.34
2022-11-16T12:09:27.293Z,100462.97
2022-11-16T12:12:02.802Z,100399.09
2022-11-16T12:14:47.122Z,100450.50
2022-11-16T12:17:28.066Z,100446.13
2022-11-16T12:20:13.288Z,100433.41
2022-11-16T12:22:48.585Z,100435.25
2022-11-16T12:25:23.152Z,100420.03
2022-11-16T12:28:54.315Z,100412.19
2022-11-16T12:31:43.025Z,100405.94
2022-11-16T12:34:30.938Z,100403.97
2022-11-16T12:37:09.592Z,100373.31
2022-11-16T12:39:44.802Z,100318.38
2022-11-16T12:42:55.681Z,100312.06
2022-11-16T12:45:47.216Z,100373.44
2022-11-16T12:48:23.554Z,100365.66
2022-11-16T12:51:11.917Z,100356.03
2022-11-16T12:54:06.243Z,100338.81
2022-11-16T12:57:00.363Z,100349.56
2022-11-16T13:00:08.621Z,100337.44
2022-11-16T13:02:56.524Z,100286.38
2022-11-16T13:05:37.928Z,100328.91
2022-11-16T13:08:16.116Z,100268.97
2022-11-16T13:10:46.244Z,100308.00
2022-11-16T13:13:40.602Z,100297.56
2022-11-16T13:16:07.256Z,100281.22
2022-11-16T13:18:37.584Z,100222.56
2022-11-16T13:21:16.045Z,100286.53
2022-11-16T13:24:00.736Z,100283.03
2022-11-16T13:26:40.598Z,100211.81
2022-11-16T13:29:30.017Z,100264.19
2022-11-16T13:32:32.118Z,100253.41
2022-11-16T13:35:00.091Z,100205.63
2022-11-16T13:37:38.629Z,100240.91
2022-11-16T13:40:05.163Z,100239.78
2022-11-16T13:42:38.884Z,100210.44
2022-11-16T13:45:27.014Z,100241.16
2022-11-16T13:47:56.800Z,100231.78
2022-11-16T13:50:37.412Z,100211.63
2022-11-16T13:56:00.659Z,100226.88
2022-11-16T13:58:29.751Z,100222.84
2022-11-16T14:01:04.364Z,100163.22
2022-11-16T14:03:34.260Z,100207.91
2022-11-16T14:06:00.844Z,100189.81
2022-11-16T14:08:27.187Z,100182.41
2022-11-16T14:10:53.630Z,100171.63
2022-11-16T14:13:35.450Z,100174.69
2022-11-16T14:16:17.167Z,100182.72
2022-11-16T14:18:44.235Z,100165.69
2022-11-16T14:21:19.715Z,100166.22
2022-11-16T14:24:08.168Z,100169.00
2022-11-16T14:26:53.739Z,100159.63
2022-11-16T14:29:29.466Z,100167.94
2022-11-16T14:31:59.030Z,100150.19
2022-11-16T14:34:43.634Z,100159.16
2022-11-16T14:37:35.483Z,100139.88
2022-11-16T14:40:17.068Z,100144.06
2022-11-16T14:43:15.477Z,100145.44
2022-11-16T14:45:40.717Z,100113.03
2022-11-16T14:48:20.134Z,100134.84
2022-11-16T14:51:07.538Z,100112.88
2022-11-16T14:53:41.257Z,100072.84
2022-11-16T14:56:13.739Z,100074.09
2022-11-16T14:58:51.239Z,100054.94
2022-11-16T15:01:19.089Z,100096.38
2022-11-16T15:03:55.706Z,100100.03
2022-11-16T15:06:24.811Z,100107.63
2022-11-16T15:08:59.416Z,100059.88
2022-11-16T15:11:29.658Z,100108.72
2022-11-16T15:13:56.183Z,100106.09
2022-11-16T15:16:22.715Z,100097.47
2022-11-16T15:18:59.842Z,100053.53
2022-11-16T15:21:26.709Z,100093.59
2022-11-16T15:24:23.319Z,100104.69
2022-11-16T15:26:40.046Z,100102.78
2022-11-16T15:29:13.301Z,100077.28
2022-11-16T15:31:42.354Z,100096.19
2022-11-16T15:34:13.243Z,100089.66
2022-11-16T15:36:41.042Z,100076.25
2022-11-16T15:39:22.932Z,100060.56
2022-11-16T15:41:51.243Z,100013.63
2022-11-16T15:44:20.179Z,100053.44
2022-11-16T15:46:53.158Z,100048.44
2022-11-16T15:49:29.776Z,100029.13
2022-11-16T15:52:00.293Z,100027.97
2022-11-16T15:54:34.922Z,99988.38
2022-11-16T15:57:09.224Z,100023.78
2022-11-16T15:59:37.385Z,100024.78
2022-11-16T16:02:04.670Z,100029.88
2022-11-16T16:04:31.209Z,100030.28
2022-11-16T16:06:59.796Z,100024.06
2022-11-16T16:09:27.870Z,99978.03
2022-11-16T16:12:13.942Z,100024.69
2022-11-16T16:14:40.408Z,100032.53
2022-11-16T16:17:09.010Z,99997.94
2022-11-16T16:19:35.355Z,100025.53
2022-11-16T16:22:03.509Z,100012.19
2022-11-16T16:24:38.222Z,99996.25
2022-11-16T16:27:22.431Z,100017.75
2022-11-16T16:29:51.166Z,100011.75
2022-11-16T16:32:27.706Z,100016.09
2022-11-16T16:34:56.463Z,100012.25
2022-11-16T16:37:23.457Z,99997.34
2022-11-16T16:39:49.859Z,99982.13
2022-11-16T16:42:17.427Z,99996.09
2022-11-16T16:44:45.065Z,99990.00
2022-11-16T16:47:12.039Z,100005.00
2022-11-16T16:49:38.772Z,100000.31
2022-11-16T16:52:06.310Z,100004.13
2022-11-16T16:54:33.007Z,99986.22
2022-11-16T16:56:59.702Z,99990.13
2022-11-16T16:59:26.107Z,99948.00
2022-11-16T17:01:52.720Z,99997.00
2022-11-16T17:04:19.628Z,100004.38
2022-11-16T17:06:46.767Z,99935.25
2022-11-16T17:09:13.891Z,100004.06
2022-11-16T17:11:40.301Z,100010.97
2022-11-16T17:14:06.720Z,100023.19
2022-11-16T17:16:33.606Z,100027.41
2022-11-16T17:19:00.099Z,99974.88
2022-11-16T17:21:26.791Z,100031.81
2022-11-16T17:23:54.182Z,100033.00
2022-11-16T17:26:20.680Z,100037.25
2022-11-16T17:28:47.519Z,99988.16
2022-11-16T17:31:14.501Z,100067.88
2022-11-16T17:33:42.133Z,100061.09
2022-11-16T17:36:11.834Z,100068.91
2022-11-16T17:38:38.854Z,100062.41
2022-11-16T17:41:08.692Z,100074.13
2022-11-16T17:43:35.851Z,100083.91
2022-11-16T17:46:04.126Z,100039.31
2022-11-16T17:48:30.602Z,100096.03
2022-11-16T17:50:57.203Z,100103.28
2022-11-16T17:53:25.280Z,100058.03
2022-11-16T17:55:55.008Z,100048.88
2022-11-16T17:58:21.750Z,100092.34
2022-11-16T18:00:49.717Z,100052.66
2022-11-16T18:03:16.384Z,100092.06
2022-11-16T18:05:43.215Z,100099.88
2022-11-16T18:08:09.897Z,100106.59
2022-11-16T18:10:37.090Z,100108.88
2022-11-16T18:13:05.183Z,100074.50
2022-11-16T18:15:41.943Z,100111.41
2022-11-16T18:18:08.914Z,100050.56
2022-11-16T18:20:37.194Z,100109.06
2022-11-16T18:23:04.668Z,100091.25
2022-11-16T18:25:34.325Z,100115.25
2022-11-16T18:28:00.713Z,100106.41
2022-11-16T18:30:27.120Z,100100.78
2022-11-16T18:32:54.072Z,100102.47
2022-11-16T18:35:20.469Z,100094.22
2022-11-16T18:37:46.893Z,100097.78
2022-11-16T18:40:13.716Z,100084.84
2022-11-16T18:42:40.132Z,100090.97
2022-11-16T18:45:07.312Z,100032.72
2022-11-16T18:47:34.198Z,100026.13
2022-11-16T18:50:00.641Z,100000.56
2022-11-16T18:52:27.080Z,100011.38
2022-11-16T18:54:53.470Z,100004.16
2022-11-16T18:57:19.912Z,100063.53
2022-11-16T18:59:46.327Z,100061.91
2022-11-16T19:02:12.807Z,100052.28
2022-11-16T19:04:39.259Z,100035.69
2022-11-16T19:07:06.157Z,100034.03
2022-11-16T19:09:32.699Z,100026.13
2022-11-16T19:11:59.245Z,100029.41
2022-11-16T19:14:25.657Z,100021.22
2022-11-16T19:16:56.968Z,100012.75
2022-11-16T19:19:24.163Z,99985.56
2022-11-16T19:21:50.609Z,99976.34
2022-11-16T19:24:17.007Z,99930.75
2022-11-16T19:26:43.522Z,99973.38
2022-11-16T19:29:09.965Z,99964.41
2022-11-16T19:31:36.387Z,99908.97
2022-11-16T19:34:05.014Z,99967.53
2022-11-16T19:36:33.161Z,99953.63
2022-11-16T19:38:59.777Z,99890.81
2022-11-16T19:41:27.280Z,99945.44
2022-11-16T19:43:57.262Z,99899.69
2022-11-16T19:46:23.973Z,99940.81
2022-11-16T19:48:51.023Z,99947.84
2022-11-16T19:51:20.741Z,99938.28
2022-11-16T19:53:47.352Z,99939.81
2022-11-16T19:56:15.987Z,99943.91
2022-11-16T19:58:43.257Z,99878.22
2022-11-16T20:01:18.698Z,99933.19
2022-11-16T20:03:46.402Z,99929.22
2022-11-16T20:06:18.922Z,99918.41
2022-11-16T20:08:50.580Z,99912.69
2022-11-16T20:11:19.582Z,99907.84
2022-11-16T20:13:47.456Z,99848.19
2022-11-16T20:16:15.489Z,99895.50
2022-11-16T20:18:43.184Z,99900.16
2022-11-16T20:21:16.357Z,99874.19
2022-11-16T20:23:42.750Z,99828.09
2022-11-16T20:26:11.391Z,99849.47
2022-11-16T20:28:39.582Z,99847.78
2022-11-16T20:31:12.327Z,99830.78
2022-11-16T20:33:39.608Z,99816.31
2022-11-16T20:36:08.743Z,99815.19
2022-11-16T20:38:36.454Z,99804.09
2022-11-16T20:41:14.014Z,99798.88
2022-11-16T20:43:41.999Z,99736.47
2022-11-16T20:46:10.680Z,99741.25
2022-11-16T20:48:37.656Z,99775.25
2022-11-16T20:51:05.343Z,99762.34
2022-11-16T20:53:32.476Z,99709.38
2022-11-16T20:55:59.415Z,99756.66
2022-11-16T20:58:26.087Z,99747.91
2022-11-16T21:00:52.510Z,99689.25
2022-11-16T21:03:18.978Z,99744.28
2022-11-16T21:05:50.102Z,99745.38
2022-11-16T21:08:16.543Z,99755.22
2022-11-16T21:10:43.000Z,99734.03
2022-11-16T21:13:14.336Z,99757.25
2022-11-16T21:15:40.732Z,99704.34
2022-11-16T21:18:07.124Z,99792.91
2022-11-16T21:20:33.881Z,99795.28
2022-11-16T21:23:00.315Z,99825.59
2022-11-16T21:25:26.834Z,99846.88
2022-11-16T21:27:53.267Z,99855.50
2022-11-16T21:30:19.853Z,99888.41
2022-11-16T21:32:46.406Z,99905.22
2022-11-16T21:35:12.771Z,99947.88
2022-11-16T21:37:39.191Z,100011.72
2022-11-16T21:40:06.081Z,99999.09
2022-11-16T21:42:32.532Z,100087.44
2022-11-16T21:44:58.954Z,100149.63
2022-11-16T21:47:25.500Z,100124.25
2022-11-16T21:50:16.891Z,100224.16
2022-11-16T21:52:38.355Z,100261.66
2022-11-16T21:55:05.198Z,100248.75
2022-11-16T21:57:31.622Z,100342.81
2022-11-16T21:59:57.999Z,100324.91
2022-11-16T22:02:24.432Z,100398.75
2022-11-16T22:04:50.836Z,100403.81
2022-11-16T22:07:17.417Z,100519.13
2022-11-16T22:09:43.869Z,100552.78
2022-11-16T22:12:10.353Z,100579.84
2022-11-16T22:14:36.805Z,100641.16
2022-11-16T22:17:03.258Z,100666.81
2022-11-16T22:19:29.665Z,100691.03
2022-11-16T22:21:56.109Z,100733.75
2022-11-16T22:24:22.619Z,100691.34
2022-11-16T22:26:49.348Z,100787.66
2022-11-16T22:29:15.742Z,100815.91
2022-11-16T22:31:42.187Z,100845.19
2022-11-16T22:34:08.608Z,100884.47
2022-11-16T22:36:35.042Z,100915.31
2022-11-16T22:39:01.419Z,100886.53
2022-11-16T22:41:27.932Z,101030.56
2022-11-16T22:43:54.566Z,101008.56
2022-11-16T22:46:21.000Z,101031.81
2022-11-16T22:48:47.549Z,101223.16
2022-11-16T22:51:21.918Z,101223.00
2022-11-16T22:54:02.234Z,101182.72
2022-11-16T22:56:30.334Z,101156.84
2022-11-16T22:58:56.908Z,101156.91
2022-11-16T23:01:23.839Z,101168.16
2022-11-16T23:03:50.829Z,101148.59
2022-11-16T23:06:18.174Z,101120.69
2022-11-16T23:08:44.642Z,101186.00
2022-11-16T23:11:13.702Z,101196.81
2022-11-16T23:13:40.096Z,101105.06
2022-11-16T23:16:06.674Z,101185.94
2022-11-16T23:18:33.057Z,101126.94
2022-11-16T23:20:59.568Z,101043.22
2022-11-16T23:23:26.130Z,101023.38
2022-11-16T23:25:52.520Z,101011.53
2022-11-16T23:28:19.759Z,100984.22
2022-11-16T23:30:46.330Z,101051.97
2022-11-16T23:33:12.926Z,101042.34
2022-11-16T23:35:39.476Z,101043.16
2022-11-16T23:38:07.541Z,100936.41
2022-11-16T23:40:37.196Z,101000.09
2022-11-16T23:43:05.022Z,100918.97
2022-11-16T23:45:31.501Z,100880.50
2022-11-16T23:47:57.917Z,100881.66
2022-11-16T23:50:27.454Z,100992.66
2022-11-16T23:52:54.183Z,100916.66
2022-11-16T23:55:20.585Z,101054.00
2022-11-16T23:57:47.067Z,100997.53
